Time;durP1;ratioP1;P1;durP2;ratioP2;P2;SDS_P1;SDS_P2;PMS_P1;PMS_P2;Temp;Humidity;BMP_temperature;BMP_pressure;BME280_temperature;BME280_humidity;BME280_pressure;Samples;Min_cycle;Max_cycle;Signal;HPM_P1;HPM_P2
2023/10/06 00:00:40;;;;;;;15.77;12.83;;;13.10;99.90;;;;;;5074263;28;20800;-61
2023/10/06 00:03:10;;;;;;;18.70;13.00;;;13.00;99.90;;;;;;5074061;28;20445;-60
2023/10/06 00:05:38;;;;;;;19.50;12.53;;;13.00;99.90;;;;;;5074055;28;20433;-60
2023/10/06 00:08:07;;;;;;;14.93;13.00;;;13.00;99.90;;;;;;5074131;28;20452;-61
2023/10/06 00:10:35;;;;;;;18.67;14.30;;;12.90;99.90;;;;;;5073466;28;20497;-60
2023/10/06 00:13:05;;;;;;;20.17;15.17;;;12.80;99.90;;;;;;5073703;28;20478;-60
2023/10/06 00:15:38;;;;;;;20.03;15.07;;;12.80;99.90;;;;;;5073158;28;20957;-61
2023/10/06 00:18:09;;;;;;;18.63;14.37;;;12.80;99.90;;;;;;5073843;28;20515;-61
2023/10/06 00:20:48;;;;;;;23.67;14.20;;;12.70;99.90;;;;;;5073780;28;20477;-60
2023/10/06 00:23:20;;;;;;;16.10;13.50;;;12.70;99.90;;;;;;5073808;28;20530;-60
2023/10/06 00:25:47;;;;;;;18.30;13.43;;;12.60;99.90;;;;;;5073721;28;20515;-60
2023/10/06 00:28:19;;;;;;;18.73;13.90;;;12.60;99.90;;;;;;5074066;28;20445;-61
2023/10/06 00:30:47;;;;;;;18.63;15.27;;;12.50;99.90;;;;;;5073484;28;20493;-60
2023/10/06 00:33:16;;;;;;;21.63;14.63;;;12.50;99.90;;;;;;5073365;28;20446;-60
2023/10/06 00:35:44;;;;;;;22.17;15.20;;;12.50;99.90;;;;;;5072904;28;20441;-61
2023/10/06 00:38:16;;;;;;;20.77;13.67;;;12.50;99.90;;;;;;5074084;28;20456;-60
2023/10/06 00:40:50;;;;;;;21.33;14.37;;;12.40;99.90;;;;;;5072973;28;20954;-60
2023/10/06 00:43:28;;;;;;;19.43;14.77;;;12.40;99.90;;;;;;5074252;28;20427;-61
2023/10/06 00:46:00;;;;;;;17.07;14.60;;;12.30;99.90;;;;;;5073276;28;20452;-61
2023/10/06 00:48:29;;;;;;;19.40;15.03;;;12.30;99.90;;;;;;5073076;28;20480;-60
2023/10/06 00:50:58;;;;;;;24.03;16.70;;;12.30;99.90;;;;;;5072974;28;20518;-61
2023/10/06 00:53:31;;;;;;;22.03;14.83;;;12.30;99.90;;;;;;5073027;28;20499;-61
2023/10/06 00:56:00;;;;;;;19.80;15.23;;;12.30;99.90;;;;;;5073020;28;20828;-61
2023/10/06 00:58:33;;;;;;;17.43;14.33;;;12.30;99.90;;;;;;5072680;28;20934;-61
2023/10/06 01:01:00;;;;;;;20.50;15.03;;;12.30;99.90;;;;;;5073240;28;20793;-61
2023/10/06 01:03:28;;;;;;;22.10;16.03;;;12.30;99.90;;;;;;5073192;28;20821;-61
2023/10/06 01:06:05;;;;;;;20.63;15.33;;;12.40;99.90;;;;;;5072982;28;20452;-61
2023/10/06 01:08:32;;;;;;;20.00;16.80;;;12.40;99.90;;;;;;5072868;28;20516;-61
2023/10/06 01:11:11;;;;;;;19.90;14.67;;;12.30;99.90;;;;;;5073030;28;20476;-61
2023/10/06 01:13:46;;;;;;;17.93;14.07;;;12.30;99.90;;;;;;5073584;28;20447;-61
2023/10/06 01:16:15;;;;;;;18.70;13.97;;;12.30;99.90;;;;;;5073012;28;20428;-61
2023/10/06 01:18:43;;;;;;;22.20;15.50;;;12.30;99.90;;;;;;5072784;28;20450;-61
2023/10/06 01:21:17;;;;;;;17.53;13.80;;;12.30;99.90;;;;;;5073163;28;20490;-61
2023/10/06 01:23:46;;;;;;;21.60;15.17;;;12.30;99.90;;;;;;5072968;28;20832;-61
2023/10/06 01:26:14;;;;;;;18.70;13.47;;;12.20;99.90;;;;;;5072876;28;20449;-61
2023/10/06 01:28:45;;;;;;;22.00;14.83;;;12.20;99.90;;;;;;5072854;28;20445;-60
2023/10/06 01:31:12;;;;;;;24.40;13.90;;;12.20;99.90;;;;;;5072843;28;20462;-61
2023/10/06 01:33:39;;;;;;;22.70;14.07;;;12.10;99.90;;;;;;5072778;28;20498;-61
2023/10/06 01:36:13;;;;;;;16.93;13.30;;;12.10;99.90;;;;;;5072730;28;20437;-61
2023/10/06 01:38:41;;;;;;;18.70;13.50;;;12.10;99.90;;;;;;5072372;28;20848;-61
2023/10/06 01:41:09;;;;;;;20.93;14.33;;;12.00;99.90;;;;;;5072857;28;20439;-60
2023/10/06 01:43:38;;;;;;;17.83;12.73;;;12.00;99.90;;;;;;5072981;28;20447;-61
2023/10/06 01:46:07;;;;;;;15.00;12.40;;;12.00;99.90;;;;;;5072812;28;20452;-60
2023/10/06 01:48:36;;;;;;;28.30;15.20;;;11.90;99.90;;;;;;5075712;28;20522;-61
2023/10/06 01:51:07;;;;;;;20.03;14.30;;;11.90;99.90;;;;;;5076492;28;20484;-61
2023/10/06 01:53:39;;;;;;;20.50;13.50;;;11.90;99.90;;;;;;5076498;28;20423;-61
2023/10/06 01:56:07;;;;;;;20.47;13.27;;;11.80;99.90;;;;;;5076250;28;20477;-60
2023/10/06 01:58:36;;;;;;;19.50;13.80;;;11.80;99.90;;;;;;5076341;28;20448;-62
2023/10/06 02:01:05;;;;;;;21.40;14.60;;;11.80;99.90;;;;;;5075941;28;20959;-61
2023/10/06 02:03:38;;;;;;;16.70;12.27;;;11.80;99.90;;;;;;5076246;28;20448;-60
2023/10/06 02:06:05;;;;;;;21.23;15.40;;;11.80;99.90;;;;;;5075141;28;20399;-60
2023/10/06 02:08:32;;;;;;;22.10;16.02;;;11.80;99.90;;;;;;5074878;28;20404;-60
2023/10/06 02:11:01;;;;;;;21.90;14.82;;;11.80;99.90;;;;;;5074999;28;20435;-60
2023/10/06 02:13:29;;;;;;;18.33;12.17;;;11.80;99.90;;;;;;5076168;28;20212;-60
2023/10/06 02:15:58;;;;;;;17.63;12.30;;;11.80;99.90;;;;;;5075804;28;20859;-60
2023/10/06 02:18:35;;;;;;;22.23;11.50;;;11.80;99.90;;;;;;5075960;28;20448;-61
2023/10/06 02:21:06;;;;;;;15.20;11.30;;;11.80;99.90;;;;;;5076276;28;20455;-60
2023/10/06 02:23:37;;;;;;;12.80;10.83;;;11.70;99.90;;;;;;5076248;28;20484;-60
2023/10/06 02:26:07;;;;;;;22.33;11.33;;;11.70;99.90;;;;;;5076073;28;20426;-60
2023/10/06 02:28:33;;;;;;;15.60;11.30;;;11.70;99.90;;;;;;5075852;28;20443;-60
2023/10/06 02:31:05;;;;;;;15.50;10.80;;;11.60;99.90;;;;;;5075396;28;21021;-60
2023/10/06 02:33:36;;;;;;;16.77;9.87;;;11.60;99.90;;;;;;5100727;22;20424;-60
2023/10/06 02:36:13;;;;;;;17.13;10.63;;;11.60;99.90;;;;;;5055788;28;20802;-61
2023/10/06 02:38:46;;;;;;;14.13;9.93;;;11.60;99.90;;;;;;5057267;28;20430;-60
2023/10/06 02:41:18;;;;;;;15.97;9.63;;;11.50;99.90;;;;;;5056366;28;20423;-60
2023/10/06 02:43:48;;;;;;;13.77;10.70;;;11.50;99.90;;;;;;5056233;28;20433;-60
2023/10/06 02:46:20;;;;;;;13.00;10.00;;;11.60;99.90;;;;;;5056810;28;20421;-60
2023/10/06 02:48:49;;;;;;;14.93;11.43;;;11.50;99.90;;;;;;5056596;28;20482;-60
2023/10/06 02:51:21;;;;;;;16.23;10.20;;;11.50;99.90;;;;;;5055795;28;20491;-61
2023/10/06 02:53:50;;;;;;;16.83;10.97;;;11.60;99.90;;;;;;5056418;28;20472;-59
2023/10/06 02:56:28;;;;;;;16.73;10.90;;;11.50;99.90;;;;;;5055793;28;20442;-61
2023/10/06 02:58:59;;;;;;;11.23;10.00;;;11.50;99.90;;;;;;5055507;28;20434;-61
2023/10/06 03:01:27;;;;;;;14.80;11.13;;;11.50;99.90;;;;;;5056798;28;20843;-61
2023/10/06 03:04:06;;;;;;;23.33;10.60;;;11.50;99.90;;;;;;5055369;28;20973;-61
2023/10/06 03:06:32;;;;;;;13.90;10.13;;;11.40;99.90;;;;;;5056767;28;20429;-61
2023/10/06 03:09:05;;;;;;;17.07;10.30;;;11.40;99.90;;;;;;5058056;28;20467;-60
2023/10/06 03:11:33;;;;;;;19.67;11.73;;;11.40;99.90;;;;;;5058554;28;20537;-59
2023/10/06 03:14:00;;;;;;;16.50;11.10;;;11.30;99.90;;;;;;5057492;28;20471;-61
2023/10/06 03:16:29;;;;;;;20.87;11.53;;;11.30;99.90;;;;;;5056045;28;20440;-61
2023/10/06 03:18:57;;;;;;;16.93;11.10;;;11.30;99.90;;;;;;5055800;28;20440;-60
2023/10/06 03:21:24;;;;;;;22.10;9.60;;;11.20;99.90;;;;;;5055774;28;20872;-60
2023/10/06 03:24:00;;;;;;;21.13;11.33;;;11.20;99.90;;;;;;5055741;28;20464;-62
2023/10/06 03:26:34;;;;;;;14.30;10.57;;;11.20;99.90;;;;;;5056100;28;20432;-60
2023/10/06 03:29:03;;;;;;;16.37;11.03;;;11.20;99.90;;;;;;5057200;28;20429;-60
2023/10/06 03:31:44;;;;;;;21.83;11.00;;;11.20;99.90;;;;;;5056539;28;20488;-61
2023/10/06 03:34:15;;;;;;;13.80;9.20;;;11.20;99.90;;;;;;5057132;28;20904;-61
2023/10/06 03:36:51;;;;;;;17.97;11.17;;;11.20;99.90;;;;;;5056304;28;20502;-60
2023/10/06 03:39:23;;;;;;;19.40;11.03;;;11.20;99.90;;;;;;5056197;28;20424;-60
2023/10/06 03:41:52;;;;;;;16.80;10.20;;;11.20;99.90;;;;;;5057275;28;20525;-61
2023/10/06 03:44:26;;;;;;;17.98;11.73;;;11.10;99.90;;;;;;5054573;28;20500;-62
2023/10/06 03:46:54;;;;;;;16.07;10.97;;;11.10;99.90;;;;;;5055834;28;20431;-61
2023/10/06 03:49:21;;;;;;;11.07;9.60;;;11.10;99.90;;;;;;5057049;28;20534;-61
2023/10/06 03:51:48;;;;;;;11.70;8.90;;;11.10;99.90;;;;;;5055996;28;21092;-60
2023/10/06 03:54:15;;;;;;;16.33;8.27;;;11.10;99.90;;;;;;5054771;28;20962;-61
2023/10/06 03:56:45;;;;;;;15.07;10.80;;;11.20;99.90;;;;;;5055154;28;20520;-60
2023/10/06 03:59:15;;;;;;;14.13;7.60;;;11.30;99.90;;;;;;5055365;28;20471;-61
2023/10/06 04:01:44;;;;;;;11.17;7.60;;;11.30;99.90;;;;;;5096126;22;20487;-57
2023/10/06 04:04:13;;;;;;;9.97;7.50;;;11.40;99.90;;;;;;5073868;28;20439;-56
2023/10/06 04:06:40;;;;;;;11.73;7.70;;;11.50;99.90;;;;;;5073721;28;20799;-57
2023/10/06 04:12:20;;;;;;;12.50;6.83;;;11.60;99.90;;;;;;5090560;27;21009;-57
2023/10/06 04:14:47;;;;;;;15.87;8.40;;;11.70;99.90;;;;;;5090506;28;20447;-59
2023/10/06 04:17:14;;;;;;;13.00;6.77;;;11.70;99.90;;;;;;5090697;28;20450;-59
2023/10/06 04:19:41;;;;;;;12.03;6.53;;;11.70;99.90;;;;;;5090428;28;20447;-59
2023/10/06 04:22:08;;;;;;;9.17;6.53;;;11.80;99.90;;;;;;5089992;28;20459;-59
2023/10/06 04:24:35;;;;;;;7.97;6.40;;;11.80;99.90;;;;;;5090649;28;20800;-59
2023/10/06 04:27:02;;;;;;;8.70;6.57;;;11.80;99.90;;;;;;5090577;28;20443;-58
2023/10/06 04:29:34;;;;;;;8.77;5.40;;;11.80;99.90;;;;;;5090242;28;20431;-59
2023/10/06 04:32:01;;;;;;;13.37;5.80;;;11.90;99.90;;;;;;5090591;28;20569;-59
2023/10/06 04:34:33;;;;;;;7.70;4.97;;;11.90;99.90;;;;;;5090204;28;20445;-59
2023/10/06 04:37:00;;;;;;;7.93;4.97;;;12.00;99.90;;;;;;5090213;28;20435;-57
2023/10/06 04:39:27;;;;;;;10.53;5.97;;;12.00;99.90;;;;;;5090007;28;20442;-59
2023/10/06 04:41:55;;;;;;;8.40;5.53;;;12.00;99.90;;;;;;5089933;28;20459;-59
2023/10/06 04:44:21;;;;;;;7.93;4.90;;;12.00;99.90;;;;;;5089932;28;20446;-58
2023/10/06 04:46:50;;;;;;;8.00;4.47;;;12.00;99.90;;;;;;5089947;28;20436;-58
2023/10/06 04:49:17;;;;;;;13.07;6.03;;;12.00;99.90;;;;;;5089996;28;20481;-60
2023/10/06 04:51:43;;;;;;;10.43;4.83;;;12.00;99.90;;;;;;5090334;28;20490;-59
2023/10/06 04:54:10;;;;;;;7.30;4.27;;;12.00;99.90;;;;;;5090113;28;20444;-58
2023/10/06 04:56:37;;;;;;;8.37;5.00;;;12.00;99.90;;;;;;5090306;28;20432;-60
2023/10/06 04:59:05;;;;;;;9.67;4.93;;;12.00;99.90;;;;;;5090730;28;20439;-59
2023/10/06 05:01:32;;;;;;;11.17;6.37;;;12.00;99.90;;;;;;5089424;28;21020;-60
2023/10/06 05:04:05;;;;;;;9.67;4.97;;;11.90;99.90;;;;;;5089778;28;20442;-59
2023/10/06 05:06:32;;;;;;;11.50;5.20;;;11.90;99.90;;;;;;5090297;28;20514;-59
2023/10/06 05:08:59;;;;;;;8.53;4.50;;;11.90;99.90;;;;;;5089800;28;20479;-59
2023/10/06 05:11:26;;;;;;;10.83;5.60;;;11.80;99.90;;;;;;5089108;28;20490;-60
2023/10/06 05:13:53;;;;;;;6.17;4.27;;;11.80;99.90;;;;;;5089547;28;20508;-58
2023/10/06 05:16:20;;;;;;;7.80;4.10;;;11.80;99.90;;;;;;5089774;28;20435;-63
2023/10/06 05:18:47;;;;;;;8.97;4.00;;;11.90;99.90;;;;;;5089580;28;20960;-59
2023/10/06 05:21:17;;;;;;;9.53;4.50;;;11.90;99.90;;;;;;5089668;28;20883;-60
2023/10/06 05:23:45;;;;;;;10.47;4.07;;;12.00;99.90;;;;;;5076802;28;20443;-59
2023/10/06 05:26:13;;;;;;;12.03;5.10;;;12.00;99.90;;;;;;5076828;28;20449;-60
2023/10/06 05:28:40;;;;;;;8.20;4.73;;;12.10;99.90;;;;;;5077013;28;20497;-60
2023/10/06 05:31:07;;;;;;;11.43;4.13;;;12.10;99.90;;;;;;5079773;28;20543;-60
2023/10/06 05:33:34;;;;;;;9.23;4.60;;;12.10;99.90;;;;;;5080276;28;20454;-60
2023/10/06 05:36:09;;;;;;;6.50;3.90;;;12.20;99.90;;;;;;5081230;28;20580;-59
2023/10/06 05:38:37;;;;;;;6.70;4.07;;;12.20;99.90;;;;;;5081188;28;20452;-59
2023/10/06 05:41:07;;;;;;;6.77;4.00;;;12.20;99.90;;;;;;5084673;28;20455;-60
2023/10/06 05:43:34;;;;;;;5.40;4.77;;;12.30;99.90;;;;;;5085435;28;20548;-59
2023/10/06 05:46:03;;;;;;;10.07;4.27;;;12.30;99.90;;;;;;5085744;28;20835;-59
2023/10/06 05:48:30;;;;;;;9.57;4.37;;;12.30;99.90;;;;;;5085073;28;21002;-59
2023/10/06 05:51:04;;;;;;;5.87;3.90;;;12.30;99.90;;;;;;5076071;28;20488;-60
2023/10/06 05:53:34;;;;;;;5.27;4.30;;;12.40;99.90;;;;;;5074939;28;20989;-59
2023/10/06 05:56:03;;;;;;;6.83;4.70;;;12.40;99.90;;;;;;5075387;28;20535;-59
2023/10/06 05:58:30;;;;;;;7.27;4.40;;;12.50;99.90;;;;;;5075116;28;20896;-60
2023/10/06 06:01:05;;;;;;;9.80;4.33;;;12.50;99.90;;;;;;5074914;28;20484;-60
2023/10/06 06:03:31;;;;;;;7.73;4.53;;;12.50;99.90;;;;;;5075143;28;20437;-60
2023/10/06 06:06:02;;;;;;;7.70;3.87;;;12.50;99.90;;;;;;5075175;28;20440;-59
2023/10/06 06:08:30;;;;;;;6.80;4.30;;;12.60;99.90;;;;;;5074865;28;20945;-60
2023/10/06 06:10:57;;;;;;;11.83;4.40;;;12.60;99.90;;;;;;5074957;28;20485;-60
2023/10/06 06:13:25;;;;;;;11.80;5.80;;;12.60;99.90;;;;;;5074904;28;20925;-60
2023/10/06 06:15:53;;;;;;;5.73;4.33;;;12.70;99.90;;;;;;5075275;28;20473;-60
2023/10/06 06:18:20;;;;;;;5.37;4.10;;;12.70;99.90;;;;;;5074820;28;20453;-58
2023/10/06 06:20:46;;;;;;;10.37;3.67;;;12.80;99.90;;;;;;5074413;28;20449;-59
2023/10/06 06:23:15;;;;;;;7.60;3.17;;;12.90;99.90;;;;;;5075166;28;20438;-60
2023/10/06 06:25:44;;;;;;;7.43;3.70;;;13.00;99.90;;;;;;5074996;28;20450;-60
2023/10/06 06:28:12;;;;;;;6.70;3.67;;;13.00;99.90;;;;;;5074652;28;20450;-61
2023/10/06 06:30:41;;;;;;;7.40;3.73;;;13.00;99.90;;;;;;5074525;28;20454;-60
2023/10/06 06:33:09;;;;;;;5.63;3.20;;;13.10;99.90;;;;;;5074654;28;20456;-58
2023/10/06 06:35:36;;;;;;;7.40;4.93;;;13.20;99.90;;;;;;5073669;28;20446;-59
2023/10/06 06:38:05;;;;;;;7.83;4.00;;;13.20;99.90;;;;;;5074494;28;20457;-60
2023/10/06 06:40:32;;;;;;;5.70;3.77;;;13.20;99.90;;;;;;5074183;28;20940;-61
2023/10/06 06:43:00;;;;;;;6.40;3.20;;;13.30;99.90;;;;;;5074424;28;20831;-59
2023/10/06 06:45:28;;;;;;;7.40;4.20;;;13.30;99.90;;;;;;5074277;28;20439;-59
2023/10/06 06:47:56;;;;;;;5.80;3.30;;;13.40;99.90;;;;;;5074245;28;20458;-59
2023/10/06 06:50:23;;;;;;;9.97;4.23;;;13.40;99.90;;;;;;5074292;28;20939;-59
2023/10/06 06:52:53;;;;;;;5.10;3.07;;;13.40;99.90;;;;;;5074028;28;20490;-59
2023/10/06 06:55:20;;;;;;;5.77;3.00;;;13.40;99.90;;;;;;5074781;28;20440;-60
2023/10/06 06:57:49;;;;;;;5.27;3.60;;;13.30;99.90;;;;;;5073891;28;20458;-59
2023/10/06 07:00:17;;;;;;;5.97;4.57;;;13.30;99.90;;;;;;5073923;28;20545;-61
2023/10/06 07:02:45;;;;;;;4.80;3.63;;;13.30;99.90;;;;;;5073717;28;20454;-59
2023/10/06 07:05:15;;;;;;;7.10;3.80;;;13.30;99.90;;;;;;5073775;28;20442;-59
2023/10/06 07:07:43;;;;;;;7.47;3.50;;;13.30;99.90;;;;;;5073916;28;20533;-59
2023/10/06 07:10:13;;;;;;;7.97;3.40;;;13.40;99.90;;;;;;5073312;28;20451;-60
2023/10/06 07:12:39;;;;;;;10.60;3.80;;;13.50;99.90;;;;;;5073531;28;20532;-60
2023/10/06 07:15:14;;;;;;;5.17;3.10;;;13.60;99.90;;;;;;5073427;28;20978;-61
2023/10/06 07:17:42;;;;;;;5.60;3.10;;;13.70;99.90;;;;;;5074022;28;20446;-60
2023/10/06 07:20:14;;;;;;;9.40;3.30;;;13.80;99.90;;;;;;5073627;28;20542;-60
2023/10/06 07:22:42;;;;;;;9.07;3.23;;;13.90;99.90;;;;;;5073727;28;20473;-60
2023/10/06 07:25:10;;;;;;;6.57;3.13;;;14.00;99.90;;;;;;5073877;28;20446;-60
2023/10/06 07:27:37;;;;;;;8.00;3.67;;;14.10;99.90;;;;;;5073213;28;20952;-59
2023/10/06 07:30:09;;;;;;;5.97;3.40;;;14.20;99.90;;;;;;5073481;28;20443;-59
2023/10/06 07:32:40;;;;;;;4.93;3.07;;;14.30;99.90;;;;;;5074071;28;20478;-60
2023/10/06 07:35:08;;;;;;;6.27;3.40;;;14.40;99.90;;;;;;5073757;28;20459;-60
2023/10/06 07:37:36;;;;;;;7.70;3.30;;;14.50;99.90;;;;;;5073767;28;20450;-60
2023/10/06 07:40:12;;;;;;;9.90;4.57;;;14.60;99.90;;;;;;5073572;28;20473;-59
2023/10/06 07:42:40;;;;;;;13.43;3.60;;;14.70;99.90;;;;;;5073263;28;20516;-59
2023/10/06 07:45:08;;;;;;;5.37;3.17;;;14.80;99.90;;;;;;5074792;28;20443;-60
2023/10/06 07:47:36;;;;;;;8.10;3.50;;;14.90;99.90;;;;;;5075844;28;20439;-59
2023/10/06 07:50:04;;;;;;;7.30;4.10;;;14.90;99.90;;;;;;5075245;28;20565;-60
2023/10/06 07:52:31;;;;;;;6.23;3.57;;;14.90;99.90;;;;;;5073261;28;20547;-60
2023/10/06 07:54:58;;;;;;;5.60;3.13;;;14.80;99.90;;;;;;5072987;28;20783;-60
2023/10/06 07:57:32;;;;;;;7.23;3.50;;;14.80;99.90;;;;;;5073277;28;20446;-60
2023/10/06 08:00:04;;;;;;;4.80;3.37;;;14.90;99.90;;;;;;5073237;28;20457;-59
2023/10/06 08:02:30;;;;;;;8.30;3.00;;;15.00;99.90;;;;;;5073382;28;20550;-60
2023/10/06 08:04:57;;;;;;;9.97;3.43;;;15.10;99.90;;;;;;5073459;28;20501;-61
2023/10/06 08:07:27;;;;;;;5.67;3.37;;;15.30;99.90;;;;;;5074141;28;20439;-58
2023/10/06 08:09:55;;;;;;;5.97;2.57;;;15.50;99.90;;;;;;5073992;28;20444;-60
2023/10/06 08:12:23;;;;;;;3.27;2.37;;;15.70;99.90;;;;;;5075874;28;20483;-60
2023/10/06 08:14:51;;;;;;;5.70;2.80;;;15.80;99.90;;;;;;5078013;28;20842;-60
2023/10/06 08:17:19;;;;;;;5.53;2.90;;;16.00;99.90;;;;;;5081095;28;20446;-60
2023/10/06 08:19:47;;;;;;;4.83;3.20;;;16.00;99.90;;;;;;5082575;28;20556;-61
2023/10/06 08:22:13;;;;;;;7.03;2.60;;;16.10;99.90;;;;;;5081470;28;20463;-58
2023/10/06 08:24:41;;;;;;;6.90;2.97;;;16.10;99.90;;;;;;5083324;28;20445;-59
2023/10/06 08:27:07;;;;;;;7.07;2.87;;;16.10;99.90;;;;;;5084629;28;20447;-59
2023/10/06 08:29:34;;;;;;;9.07;3.07;;;16.00;99.90;;;;;;5081916;28;20463;-59
2023/10/06 08:32:03;;;;;;;7.67;3.93;;;15.90;99.90;;;;;;5074527;28;20481;-59
2023/10/06 08:34:30;;;;;;;6.30;2.93;;;15.90;99.90;;;;;;5073175;28;20490;-60
2023/10/06 08:36:57;;;;;;;6.30;3.20;;;15.90;99.90;;;;;;5072977;28;20453;-60
2023/10/06 08:39:38;;;;;;;5.60;3.23;;;16.00;99.90;;;;;;5072746;28;20448;-60
2023/10/06 08:42:08;;;;;;;7.27;2.90;;;16.10;99.90;;;;;;5072703;28;20465;-59
2023/10/06 08:44:38;;;;;;;6.50;3.33;;;16.20;99.90;;;;;;5072976;28;20446;-60
2023/10/06 08:47:10;;;;;;;6.27;2.83;;;16.40;99.90;;;;;;5072834;28;20923;-61
2023/10/06 08:49:39;;;;;;;4.47;2.40;;;16.60;99.90;;;;;;5073250;28;20412;-60
2023/10/06 08:52:08;;;;;;;5.87;2.70;;;16.70;99.90;;;;;;5072369;28;20990;-61
2023/10/06 08:54:35;;;;;;;5.20;2.83;;;16.90;99.90;;;;;;5072642;28;20536;-60
2023/10/06 08:57:03;;;;;;;7.30;2.73;;;17.10;99.90;;;;;;5072939;28;20435;-60
2023/10/06 08:59:31;;;;;;;5.20;2.10;;;17.30;99.90;;;;;;5075994;28;20822;-59
2023/10/06 09:01:59;;;;;;;3.33;2.20;;;17.50;99.90;;;;;;5076270;28;20548;-62
2023/10/06 09:04:34;;;;;;;8.27;3.30;;;17.70;99.90;;;;;;5076919;28;20770;-62
2023/10/06 09:07:12;;;;;;;6.07;3.00;;;17.80;99.90;;;;;;5076195;28;20414;-61
2023/10/06 09:09:40;;;;;;;5.03;2.77;;;17.90;99.90;;;;;;5076251;28;20420;-62
2023/10/06 09:12:09;;;;;;;6.70;2.17;;;18.00;99.90;;;;;;5076016;28;20487;-62
2023/10/06 09:14:55;;;;;;;3.80;2.30;;;18.00;99.90;;;;;;5076283;28;20504;-63
2023/10/06 09:17:32;;;;;;;5.07;2.63;;;17.90;99.90;;;;;;5076504;28;20435;-63
2023/10/06 09:20:00;;;;;;;4.60;2.27;;;17.80;99.90;;;;;;5076277;28;20621;-62
2023/10/06 09:22:30;;;;;;;8.60;2.73;;;17.80;99.90;;;;;;5076313;28;20455;-60
2023/10/06 09:24:59;;;;;;;7.57;3.10;;;17.80;99.90;;;;;;5076109;28;20501;-61
2023/10/06 09:27:28;;;;;;;6.07;2.33;;;17.90;99.90;;;;;;5076267;28;20451;-61
2023/10/06 09:30:05;;;;;;;3.27;2.03;;;17.90;99.90;;;;;;5076545;28;20443;-61
2023/10/06 09:32:32;;;;;;;5.17;1.93;;;17.90;99.90;;;;;;5075781;28;20482;-60
2023/10/06 09:35:03;;;;;;;6.20;2.50;;;17.90;99.90;;;;;;5075578;28;20449;-62
2023/10/06 09:37:29;;;;;;;3.37;2.10;;;18.00;99.90;;;;;;5076284;28;20428;-61
2023/10/06 09:39:57;;;;;;;2.60;2.33;;;18.00;99.90;;;;;;5076336;28;20439;-63
2023/10/06 09:42:28;;;;;;;5.23;2.60;;;18.10;99.90;;;;;;5076318;28;20461;-63
2023/10/06 09:45:06;;;;;;;6.63;2.73;;;18.10;99.90;;;;;;5076348;28;20429;-61
2023/10/06 09:47:36;;;;;;;6.60;2.20;;;18.20;99.90;;;;;;5076413;28;20428;-63
2023/10/06 09:50:06;;;;;;;3.90;2.20;;;18.30;99.50;;;;;;5075749;28;20963;-64
2023/10/06 09:52:35;;;;;;;3.77;2.03;;;18.30;98.90;;;;;;5076134;28;20483;-64
2023/10/06 09:55:04;;;;;;;3.23;2.23;;;18.40;97.70;;;;;;5076042;28;20451;-65
2023/10/06 09:57:33;;;;;;;5.17;2.00;;;18.40;96.30;;;;;;5075739;28;20493;-64
2023/10/06 10:00:01;;;;;;;3.90;2.00;;;18.40;95.40;;;;;;5075884;28;20444;-62
2023/10/06 10:02:30;;;;;;;2.80;1.83;;;18.60;94.80;;;;;;5075337;28;20457;-64
2023/10/06 10:05:01;;;;;;;4.10;2.03;;;18.60;93.90;;;;;;5075179;28;20435;-63
2023/10/06 10:07:30;;;;;;;4.00;2.40;;;18.80;93.30;;;;;;5075568;28;20533;-61
2023/10/06 10:09:57;;;;;;;4.80;2.20;;;18.80;91.20;;;;;;5075117;28;21016;-62
2023/10/06 10:12:37;;;;;;;3.57;1.67;;;18.80;90.90;;;;;;5075160;28;20489;-63
2023/10/06 10:15:18;;;;;;;4.83;2.30;;;19.00;90.50;;;;;;5075410;28;20857;-63
2023/10/06 10:17:53;;;;;;;3.33;1.90;;;19.00;89.10;;;;;;5075559;28;20438;-64
2023/10/06 10:20:24;;;;;;;5.57;2.30;;;19.10;88.20;;;;;;5077864;28;20430;-64
2023/10/06 10:22:55;;;;;;;7.50;2.60;;;19.00;86.60;;;;;;5078855;28;20460;-64
2023/10/06 10:25:24;;;;;;;4.60;2.37;;;19.00;86.20;;;;;;5077672;28;20449;-63
2023/10/06 10:28:14;;;;;;;3.67;2.27;;;19.00;85.70;;;;;;5075281;28;20547;-65
2023/10/06 10:30:50;;;;;;;3.80;2.33;;;19.00;83.50;;;;;;5075178;28;20447;-64
2023/10/06 10:33:21;;;;;;;3.00;2.10;;;18.90;83.10;;;;;;5074807;28;20521;-64
2023/10/06 10:36:21;;;;;;;4.50;2.27;;;18.90;83.00;;;;;;5075106;28;20441;-64
2023/10/06 10:39:04;;;;;;;5.40;2.03;;;18.90;82.30;;;;;;5074712;28;20424;-64
2023/10/06 10:41:36;;;;;;;4.70;2.43;;;19.00;81.80;;;;;;5074578;28;20466;-66
2023/10/06 10:44:05;;;;;;;2.03;1.80;;;19.10;81.60;;;;;;5075531;28;20416;-64
2023/10/06 10:46:39;;;;;;;6.23;2.17;;;19.20;80.70;;;;;;5075176;28;20439;-64
2023/10/06 10:49:10;;;;;;;5.80;2.70;;;19.20;79.60;;;;;;5074975;28;20907;-63
2023/10/06 10:51:49;;;;;;;13.60;2.63;;;19.20;79.00;;;;;;5076170;28;20829;-64
2023/10/06 10:54:22;;;;;;;5.03;2.33;;;19.20;78.40;;;;;;5077422;28;20471;-65
2023/10/06 10:56:51;;;;;;;4.77;2.50;;;19.20;79.20;;;;;;5078856;28;20425;-64
2023/10/06 10:59:18;;;;;;;4.50;2.00;;;19.20;78.30;;;;;;5082353;28;21005;-65
2023/10/06 11:01:51;;;;;;;4.83;2.13;;;19.30;77.70;;;;;;5083435;28;20544;-65
2023/10/06 11:04:26;;;;;;;5.30;2.60;;;19.40;77.30;;;;;;5086443;28;20430;-64
2023/10/06 11:06:55;;;;;;;4.90;2.13;;;19.40;76.60;;;;;;5087286;28;20480;-64
2023/10/06 11:09:36;;;;;;;4.43;2.60;;;19.50;76.20;;;;;;5086170;28;20448;-65
2023/10/06 11:12:05;;;;;;;4.90;2.50;;;19.40;75.70;;;;;;5079336;28;20582;-64
2023/10/06 11:14:39;;;;;;;4.07;2.20;;;19.50;76.00;;;;;;5075089;28;20453;-65
2023/10/06 11:17:06;;;;;;;4.17;2.50;;;19.70;76.00;;;;;;5075219;28;20784;-65
2023/10/06 11:19:36;;;;;;;4.43;2.27;;;19.80;75.20;;;;;;5075919;28;20453;-65
2023/10/06 11:22:10;;;;;;;4.37;2.20;;;19.80;74.70;;;;;;5076484;28;20497;-65
2023/10/06 11:24:40;;;;;;;2.87;2.20;;;19.80;74.20;;;;;;5075865;28;20451;-64
2023/10/06 11:27:17;;;;;;;4.67;1.93;;;19.80;73.80;;;;;;5075387;28;20440;-64
2023/10/06 11:29:45;;;;;;;3.97;2.27;;;19.80;73.40;;;;;;5074903;28;20445;-64
2023/10/06 11:32:13;;;;;;;4.30;2.10;;;19.80;73.40;;;;;;5074733;28;20974;-64
2023/10/06 11:34:43;;;;;;;6.63;2.50;;;19.90;73.10;;;;;;5075196;28;20444;-64
2023/10/06 11:37:10;;;;;;;4.20;2.40;;;19.90;72.60;;;;;;5074945;28;20858;-65
2023/10/06 11:39:40;;;;;;;3.17;2.13;;;20.00;72.00;;;;;;5077211;28;20467;-63
2023/10/06 11:42:35;;;;;;;4.80;2.33;;;20.00;71.20;;;;;;5074375;28;20466;-64
2023/10/06 11:45:06;;;;;;;3.90;2.73;;;20.00;71.00;;;;;;5075057;28;20441;-65
2023/10/06 11:47:40;;;;;;;3.03;1.93;;;20.00;71.00;;;;;;5074087;28;20517;-64
2023/10/06 11:50:08;;;;;;;3.17;2.30;;;20.10;70.60;;;;;;5073862;28;20936;-65
2023/10/06 11:52:35;;;;;;;4.90;1.97;;;20.10;70.30;;;;;;5074246;28;20479;-65
2023/10/06 11:55:08;;;;;;;4.00;2.20;;;20.10;70.00;;;;;;5074071;28;20512;-64
2023/10/06 11:57:46;;;;;;;3.60;1.90;;;20.00;69.50;;;;;;5074063;28;20827;-64
2023/10/06 12:00:17;;;;;;;4.30;2.20;;;19.90;68.50;;;;;;5073911;28;20453;-64
2023/10/06 12:02:49;;;;;;;4.50;1.90;;;19.80;68.10;;;;;;5073751;28;20873;-63
2023/10/06 12:05:17;;;;;;;2.10;1.60;;;19.80;67.90;;;;;;5073891;28;20453;-65
2023/10/06 12:07:44;;;;;;;3.20;2.27;;;19.90;67.70;;;;;;5074140;28;20448;-64
2023/10/06 12:10:12;;;;;;;4.63;2.57;;;19.90;66.50;;;;;;5073687;28;20498;-63
2023/10/06 12:12:40;;;;;;;3.90;2.00;;;19.90;66.20;;;;;;5074642;28;20478;-64
2023/10/06 12:15:07;;;;;;;2.97;1.90;;;19.90;65.70;;;;;;5074989;28;20531;-63
2023/10/06 12:17:38;;;;;;;5.87;2.80;;;19.90;65.50;;;;;;5075178;28;20438;-62
2023/10/06 12:20:07;;;;;;;5.47;3.17;;;19.90;65.20;;;;;;5076410;28;20462;-65
2023/10/06 12:22:34;;;;;;;5.23;1.90;;;19.90;65.10;;;;;;5076308;28;20843;-64
2023/10/06 12:25:01;;;;;;;5.83;1.97;;;19.90;64.50;;;;;;5075969;28;20446;-63
2023/10/06 12:27:30;;;;;;;4.53;2.10;;;20.00;64.80;;;;;;5075366;28;20951;-64
2023/10/06 12:29:57;;;;;;;3.47;1.97;;;20.20;65.00;;;;;;5075510;28;20476;-63
2023/10/06 12:32:23;;;;;;;4.23;2.23;;;20.40;64.30;;;;;;5077341;28;20463;-64
2023/10/06 12:34:50;;;;;;;6.53;2.37;;;20.60;64.20;;;;;;5078424;28;20435;-63
2023/10/06 12:37:17;;;;;;;3.50;2.13;;;20.70;63.80;;;;;;5077085;28;20442;-63
2023/10/06 12:39:45;;;;;;;6.20;2.30;;;20.80;63.80;;;;;;5076985;28;20446;-67
2023/10/06 12:42:16;;;;;;;4.53;2.00;;;20.80;63.80;;;;;;5077150;28;20458;-65
2023/10/06 12:44:44;;;;;;;3.90;1.90;;;20.80;63.80;;;;;;5077490;28;20424;-66
2023/10/06 12:47:11;;;;;;;5.30;2.27;;;20.80;63.70;;;;;;5077384;28;20815;-62
2023/10/06 12:49:42;;;;;;;6.33;2.27;;;20.80;63.80;;;;;;5077172;28;20499;-64
2023/10/06 12:52:09;;;;;;;3.00;2.30;;;20.80;63.50;;;;;;5080043;28;20452;-64
2023/10/06 12:54:36;;;;;;;4.10;2.40;;;20.90;63.10;;;;;;5076965;28;20612;-63
2023/10/06 12:57:03;;;;;;;5.30;2.60;;;20.90;63.00;;;;;;5076987;28;20457;-62